createdAt,value
2023-04-04T00:01:46.798Z,68.71
2023-04-04T00:04:13.225Z,68.31
2023-04-04T00:06:39.652Z,68.65
2023-04-04T00:09:06.103Z,69.43
2023-04-04T00:11:36.429Z,68.38
2023-04-04T00:14:02.877Z,67.83
2023-04-04T00:16:33.117Z,69.19
2023-04-04T00:18:59.664Z,68.94
2023-04-04T00:21:26.183Z,67.45
2023-04-04T00:23:54.572Z,69.19
2023-04-04T00:26:21.027Z,67.95
2023-04-04T00:28:49.297Z,68.94
2023-04-04T00:31:15.793Z,68.51
2023-04-04T00:33:42.182Z,70.56
2023-04-04T00:36:08.711Z,70.16
2023-04-04T00:38:35.197Z,69.28
2023-04-04T00:41:01.757Z,69.42
2023-04-04T00:43:29.335Z,69.64
2023-04-04T00:45:57.215Z,70.29
2023-04-04T00:48:24.312Z,69.76
2023-04-04T00:50:50.762Z,71.34
2023-04-04T00:53:17.215Z,70.52
2023-04-04T00:55:43.704Z,69.84
2023-04-04T00:58:10.841Z,70.00
2023-04-04T01:00:37.848Z,71.27
2023-04-04T01:03:06.271Z,70.59
2023-04-04T01:05:33.130Z,70.58
2023-04-04T01:08:01.171Z,71.44
2023-04-04T01:10:29.950Z,71.95
2023-04-04T01:12:57.051Z,71.68
2023-04-04T01:15:23.473Z,72.15
2023-04-04T01:17:50.515Z,71.66
2023-04-04T01:20:23.860Z,72.80
2023-04-04T01:22:55.200Z,73.99
2023-04-04T01:25:28.786Z,73.18
2023-04-04T01:27:57.445Z,72.84
2023-04-04T01:30:28.345Z,73.50
2023-04-04T01:33:00.872Z,72.61
2023-04-04T01:35:32.929Z,72.01
2023-04-04T01:38:08.135Z,71.52
2023-04-04T01:40:38.347Z,71.32
2023-04-04T01:43:06.879Z,72.31
2023-04-04T01:45:34.785Z,72.52
2023-04-04T01:48:05.810Z,72.65
2023-04-04T01:50:32.267Z,73.70
2023-04-04T01:52:58.738Z,72.63
2023-04-04T01:55:25.292Z,72.15
2023-04-04T01:57:53.110Z,73.10
2023-04-04T02:00:19.650Z,72.52
2023-04-04T02:02:46.110Z,73.33
2023-04-04T02:05:12.587Z,73.12
2023-04-04T02:07:39.490Z,74.14
2023-04-04T02:10:15.493Z,73.41
2023-04-04T02:12:42.048Z,72.80
2023-04-04T02:15:10.186Z,73.44
2023-04-04T02:17:36.688Z,73.37
2023-04-04T02:20:03.741Z,73.86
2023-04-04T02:22:30.112Z,73.75
2023-04-04T02:24:56.564Z,74.57
2023-04-04T02:27:23.212Z,73.31
2023-04-04T02:29:49.628Z,73.22
2023-04-04T02:32:17.349Z,75.02
2023-04-04T02:34:44.076Z,74.29
2023-04-04T02:37:10.816Z,74.51
2023-04-04T02:39:37.292Z,74.83
2023-04-04T02:42:03.982Z,73.72
2023-04-04T02:44:30.380Z,73.88
2023-04-04T02:46:56.967Z,74.69
2023-04-04T02:49:30.515Z,73.76
2023-04-04T02:51:57.650Z,74.00
2023-04-04T02:54:26.248Z,75.14
2023-04-04T02:56:53.215Z,73.83
2023-04-04T02:59:19.708Z,74.67
2023-04-04T03:01:46.196Z,74.33
2023-04-04T03:04:12.931Z,75.80
2023-04-04T03:06:43.217Z,74.68
2023-04-04T03:09:09.670Z,75.71
2023-04-04T03:11:36.167Z,75.14
2023-04-04T03:14:05.357Z,75.77
2023-04-04T03:16:35.853Z,74.17
2023-04-04T03:19:02.412Z,74.97
2023-04-04T03:21:28.951Z,76.41
2023-04-04T03:23:59.087Z,77.45
2023-04-04T03:26:25.642Z,76.27
2023-04-04T03:28:52.493Z,76.61
2023-04-04T03:31:21.256Z,76.93
2023-04-04T03:33:47.715Z,75.90
2023-04-04T03:36:14.602Z,77.54
2023-04-04T03:38:41.509Z,76.61
2023-04-04T03:41:10.911Z,75.86
2023-04-04T03:43:37.478Z,76.66
2023-04-04T03:46:05.477Z,76.98
2023-04-04T03:48:32.164Z,77.37
2023-04-04T03:50:59.238Z,77.59
2023-04-04T03:53:26.192Z,77.91
2023-04-04T03:55:55.026Z,76.85
2023-04-04T03:58:23.217Z,77.55
2023-04-04T04:00:50.705Z,77.53
2023-04-04T04:03:17.846Z,76.42
2023-04-04T04:05:45.880Z,76.47
2023-04-04T04:08:12.281Z,76.39
2023-04-04T04:10:38.892Z,77.19
2023-04-04T04:13:05.463Z,76.98
2023-04-04T04:15:34.155Z,75.95
2023-04-04T04:18:03.586Z,77.69
2023-04-04T04:20:30.736Z,76.68
2023-04-04T04:22:57.199Z,76.66
2023-04-04T04:25:23.745Z,76.58
2023-04-04T04:28:13.319Z,76.57
2023-04-04T04:30:41.264Z,76.16
2023-04-04T04:33:08.730Z,76.39
2023-04-04T04:35:44.192Z,77.74
2023-04-04T04:38:10.722Z,78.23
2023-04-04T04:40:37.905Z,76.92
2023-04-04T04:43:10.306Z,78.68
2023-04-04T04:45:36.827Z,78.17
2023-04-04T04:48:08.474Z,77.53
2023-04-04T04:50:43.032Z,77.72
2023-04-04T04:53:10.772Z,77.35
2023-04-04T04:55:37.203Z,76.55
2023-04-04T04:58:07.374Z,77.04
2023-04-04T05:00:34.074Z,77.23
2023-04-04T05:03:00.582Z,77.90
2023-04-04T05:05:39.303Z,77.09
2023-04-04T05:08:11.803Z,76.21
2023-04-04T05:10:46.876Z,78.24
2023-04-04T05:13:13.614Z,77.48
2023-04-04T05:15:46.378Z,76.17
2023-04-04T05:18:13.081Z,75.45
2023-04-04T05:20:41.715Z,76.23
2023-04-04T05:23:11.122Z,77.52
2023-04-04T05:25:40.847Z,78.38
2023-04-04T05:28:07.735Z,75.91
2023-04-04T05:30:35.344Z,76.32
2023-04-04T05:33:12.816Z,76.19
2023-04-04T05:35:45.482Z,75.81
2023-04-04T05:38:13.174Z,75.20
2023-04-04T05:40:40.069Z,75.87
2023-04-04T05:43:11.405Z,75.95
2023-04-04T05:45:49.138Z,75.15
2023-04-04T05:48:15.833Z,74.88
2023-04-04T05:50:50.186Z,75.03
2023-04-04T05:53:20.069Z,74.84
2023-04-04T05:55:51.529Z,73.09
2023-04-04T05:58:18.202Z,73.17
2023-04-04T06:00:49.307Z,72.78
2023-04-04T06:03:15.891Z,72.38
2023-04-04T06:05:43.715Z,72.81
2023-04-04T06:08:11.520Z,71.28
2023-04-04T06:10:38.227Z,71.23
2023-04-04T06:13:04.950Z,71.28
2023-04-04T06:15:32.396Z,70.59
2023-04-04T06:17:58.890Z,70.40
2023-04-04T06:20:28.275Z,68.99
2023-04-04T06:22:54.696Z,68.25
2023-04-04T06:25:22.927Z,68.55
2023-04-04T06:27:51.431Z,70.76
2023-04-04T06:30:18.268Z,70.56
2023-04-04T06:32:48.935Z,69.43
2023-04-04T06:35:20.498Z,69.50
2023-04-04T06:37:55.861Z,68.95
2023-04-04T06:40:24.739Z,66.84
2023-04-04T06:42:52.129Z,67.81
2023-04-04T06:45:20.431Z,67.19
2023-04-04T06:47:47.034Z,67.56
2023-04-04T06:50:13.725Z,65.45
2023-04-04T06:52:40.153Z,65.29
2023-04-04T06:55:07.642Z,67.23
2023-04-04T06:57:35.362Z,64.07
2023-04-04T07:00:01.849Z,65.13
2023-04-04T07:02:28.371Z,63.80
2023-04-04T07:04:54.848Z,63.56
2023-04-04T07:07:21.250Z,65.15
2023-04-04T07:09:47.719Z,65.44
2023-04-04T07:12:14.192Z,63.95
2023-04-04T07:14:41.985Z,64.26
2023-04-04T07:17:21.112Z,64.42
2023-04-04T07:19:50.623Z,64.33
2023-04-04T07:22:17.075Z,63.28
2023-04-04T07:24:43.578Z,61.34
2023-04-04T07:27:10.013Z,61.36
2023-04-04T07:29:36.606Z,59.90
2023-04-04T07:32:04.564Z,61.42
2023-04-04T07:34:30.974Z,61.19
2023-04-04T07:36:57.376Z,58.97
2023-04-04T07:39:24.033Z,58.68
2023-04-04T07:41:50.464Z,57.98
2023-04-04T07:44:16.870Z,56.31
2023-04-04T07:46:43.499Z,57.04
2023-04-04T07:49:11.766Z,54.32
2023-04-04T07:51:38.276Z,54.86
2023-04-04T07:54:04.718Z,53.82
2023-04-04T07:56:31.180Z,53.64
2023-04-04T07:58:57.642Z,53.94
2023-04-04T08:01:24.223Z,54.78
2023-04-04T08:03:51.519Z,53.00
2023-04-04T08:06:19.392Z,55.73
2023-04-04T08:08:45.874Z,53.41
2023-04-04T08:11:12.298Z,53.31
2023-04-04T08:13:38.980Z,53.84
2023-04-04T08:16:05.803Z,52.18
2023-04-04T08:18:32.280Z,53.64
2023-04-04T08:20:58.719Z,53.35
2023-04-04T08:23:26.492Z,53.17
2023-04-04T08:25:52.868Z,51.46
2023-04-04T08:28:19.285Z,52.52
2023-04-04T08:30:45.710Z,52.39
2023-04-04T08:33:12.111Z,51.94
2023-04-04T08:35:38.729Z,49.71
2023-04-04T08:38:05.114Z,48.33
2023-04-04T08:40:34.398Z,50.54
2023-04-04T08:43:04.142Z,51.53
2023-04-04T08:45:33.518Z,45.65
2023-04-04T08:48:01.258Z,48.62
2023-04-04T08:50:29.243Z,45.35
2023-04-04T08:52:57.583Z,47.31
2023-04-04T08:55:24.194Z,48.15
2023-04-04T08:57:51.913Z,51.67
2023-04-04T09:00:18.832Z,49.45
2023-04-04T09:02:50.162Z,53.12
2023-04-04T09:05:17.156Z,52.47
2023-04-04T09:07:43.999Z,52.87
2023-04-04T09:10:11.690Z,50.44
2023-04-04T09:12:41.720Z,49.63
2023-04-04T09:15:10.682Z,52.20
2023-04-04T09:17:37.237Z,52.33
2023-04-04T09:20:04.215Z,50.15
2023-04-04T09:22:30.704Z,50.77
2023-04-04T09:24:57.088Z,49.94
2023-04-04T09:27:23.485Z,49.83
2023-04-04T09:29:49.836Z,49.00
2023-04-04T09:32:20.468Z,48.60
2023-04-04T09:34:47.056Z,45.11
2023-04-04T09:37:14.944Z,44.67
2023-04-04T09:39:42.147Z,46.63
2023-04-04T09:42:09.273Z,48.75
2023-04-04T09:44:36.554Z,48.45
2023-04-04T09:47:29.888Z,46.61
2023-04-04T09:49:59.784Z,51.39
2023-04-04T09:52:26.773Z,46.45
2023-04-04T09:54:56.890Z,47.07
2023-04-04T09:57:24.206Z,44.53
2023-04-04T09:59:50.715Z,44.33
2023-04-04T10:02:17.271Z,47.05
2023-04-04T10:04:45.760Z,46.89
2023-04-04T10:07:15.916Z,47.84
2023-04-04T10:09:42.384Z,48.95
2023-04-04T10:12:09.405Z,48.11
2023-04-04T10:14:36.088Z,48.31
2023-04-04T10:17:09.139Z,45.32
2023-04-04T10:19:36.603Z,46.54
2023-04-04T10:22:04.332Z,45.36
2023-04-04T10:24:32.162Z,42.74
2023-04-04T10:26:59.102Z,45.54
2023-04-04T10:29:27.702Z,45.08
2023-04-04T10:32:04.763Z,47.43
2023-04-04T10:34:41.056Z,47.45
2023-04-04T10:37:13.220Z,47.93
2023-04-04T10:39:49.826Z,47.85
2023-04-04T10:42:18.532Z,47.31
2023-04-04T10:44:45.831Z,46.86
2023-04-04T10:47:16.723Z,47.44
2023-04-04T10:49:45.121Z,48.90
2023-04-04T10:52:13.277Z,46.40
2023-04-04T10:54:42.070Z,42.89
2023-04-04T10:57:08.615Z,43.52
2023-04-04T11:00:01.108Z,45.64
2023-04-04T11:02:44.371Z,43.86
2023-04-04T11:05:11.590Z,44.48
2023-04-04T11:07:39.925Z,46.73
2023-04-04T11:10:14.224Z,42.56
2023-04-04T11:12:44.138Z,40.31
2023-04-04T11:15:13.047Z,36.63
2023-04-04T11:18:17.368Z,37.85
2023-04-04T11:20:54.247Z,37.24
2023-04-04T11:23:21.571Z,33.21
2023-04-04T11:25:52.332Z,36.25
2023-04-04T11:28:27.351Z,36.92
2023-04-04T11:31:26.310Z,37.72
2023-04-04T11:34:02.414Z,34.29
2023-04-04T11:36:54.055Z,36.61
2023-04-04T11:39:26.541Z,35.20
2023-04-04T11:41:54.345Z,36.08
2023-04-04T11:44:22.247Z,35.19
2023-04-04T11:46:55.465Z,35.01
2023-04-04T11:49:25.953Z,36.78
2023-04-04T11:51:55.258Z,36.90
2023-04-04T11:54:21.886Z,38.86
2023-04-04T11:56:48.328Z,40.89
2023-04-04T11:59:18.459Z,41.74
2023-04-04T12:01:45.247Z,41.08
2023-04-04T12:04:16.995Z,37.34
2023-04-04T12:06:43.579Z,38.84
2023-04-04T12:09:10.859Z,37.95
2023-04-04T12:11:37.394Z,37.57
2023-04-04T12:14:04.018Z,38.12
2023-04-04T12:16:30.539Z,33.82
2023-04-04T12:19:01.296Z,34.25
2023-04-04T12:21:31.132Z,33.52
2023-04-04T12:23:57.610Z,31.97
2023-04-04T12:26:25.148Z,31.86
2023-04-04T12:28:51.645Z,36.34
2023-04-04T12:31:18.591Z,35.91
2023-04-04T12:33:45.072Z,35.61
2023-04-04T12:36:11.707Z,35.80
2023-04-04T12:38:55.875Z,37.22
2023-04-04T12:41:22.356Z,36.16
2023-04-04T12:43:49.169Z,36.09
2023-04-04T12:46:25.781Z,35.53
2023-04-04T12:48:52.563Z,36.72
2023-04-04T12:51:18.985Z,36.21
2023-04-04T12:53:55.701Z,31.34
2023-04-04T12:56:26.017Z,32.67
2023-04-04T12:58:52.588Z,33.72
2023-04-04T13:01:21.227Z,32.08
2023-04-04T13:03:47.745Z,35.23
2023-04-04T13:06:15.924Z,33.64
2023-04-04T13:08:49.794Z,35.39
2023-04-04T13:11:17.612Z,35.04
2023-04-04T13:13:44.237Z,36.80
2023-04-04T13:16:12.647Z,38.11
2023-04-04T13:18:40.663Z,37.21
2023-04-04T13:21:07.732Z,39.74
2023-04-04T13:23:34.540Z,35.40
2023-04-04T13:26:00.934Z,35.84
2023-04-04T13:28:31.799Z,33.82
2023-04-04T13:31:01.420Z,35.21
2023-04-04T13:33:27.909Z,30.73
2023-04-04T13:35:54.546Z,32.74
2023-04-04T13:38:24.701Z,34.67
2023-04-04T13:40:58.073Z,37.90
2023-04-04T13:43:24.692Z,37.06
2023-04-04T13:45:52.555Z,39.37
2023-04-04T13:48:19.016Z,39.48
2023-04-04T13:50:47.026Z,38.52
2023-04-04T13:53:13.455Z,39.60
2023-04-04T13:55:41.824Z,38.59
2023-04-04T13:58:18.886Z,38.58
2023-04-04T14:00:48.463Z,39.42
2023-04-04T14:03:17.822Z,37.42
2023-04-04T14:05:44.564Z,37.92
2023-04-04T14:08:10.989Z,35.34
2023-04-04T14:10:37.481Z,34.23
2023-04-04T14:13:04.204Z,37.13
2023-04-04T14:15:30.836Z,36.12
2023-04-04T14:17:57.277Z,34.74
2023-04-04T14:20:27.403Z,38.91
2023-04-04T14:22:55.076Z,38.30
2023-04-04T14:25:22.366Z,40.21
2023-04-04T14:27:48.838Z,40.64
2023-04-04T14:30:18.527Z,40.32
2023-04-04T14:32:45.018Z,38.96
2023-04-04T14:35:11.648Z,41.29
2023-04-04T14:37:39.359Z,38.31
2023-04-04T14:40:06.718Z,40.00
2023-04-04T14:42:33.175Z,38.13
2023-04-04T14:44:59.582Z,36.83
2023-04-04T14:47:26.048Z,35.22
2023-04-04T14:49:54.218Z,37.72
2023-04-04T14:52:22.070Z,33.24
2023-04-04T14:54:50.325Z,31.71
2023-04-04T14:57:17.211Z,31.24
2023-04-04T14:59:43.673Z,32.82
2023-04-04T15:02:10.113Z,32.28
2023-04-04T15:04:36.550Z,34.50
2023-04-04T15:07:03.048Z,34.91
2023-04-04T15:09:29.794Z,34.85
2023-04-04T15:11:57.669Z,33.63
2023-04-04T15:14:24.294Z,34.33
2023-04-04T15:16:50.950Z,33.54
2023-04-04T15:19:17.414Z,36.66
2023-04-04T15:21:43.899Z,36.33
2023-04-04T15:24:10.303Z,37.89
2023-04-04T15:26:36.715Z,35.77
2023-04-04T15:29:04.540Z,37.91
2023-04-04T15:31:31.195Z,37.07
2023-04-04T15:33:57.624Z,38.95
2023-04-04T15:36:24.079Z,37.06
2023-04-04T15:38:50.478Z,36.57
2023-04-04T15:41:16.917Z,33.83
2023-04-04T15:43:43.320Z,37.99
2023-04-04T15:46:11.303Z,33.85
2023-04-04T15:48:37.785Z,36.08
2023-04-04T15:51:04.470Z,37.70
2023-04-04T15:53:31.419Z,37.93
2023-04-04T15:55:58.588Z,40.30
2023-04-04T15:58:25.750Z,39.95
2023-04-04T16:00:52.430Z,40.12
2023-04-04T16:03:20.305Z,41.93
2023-04-04T16:05:46.813Z,39.42
2023-04-04T16:08:13.656Z,38.61
2023-04-04T16:10:40.273Z,39.52
2023-04-04T16:13:06.777Z,37.76
2023-04-04T16:15:33.196Z,38.49
2023-04-04T16:17:59.600Z,38.56
2023-04-04T16:20:27.726Z,41.07
2023-04-04T16:22:55.717Z,39.59
2023-04-04T16:25:22.543Z,40.56
2023-04-04T16:27:48.936Z,40.60
2023-04-04T16:30:15.567Z,42.94
2023-04-04T16:32:42.122Z,40.60
2023-04-04T16:35:09.204Z,39.63
2023-04-04T16:37:37.005Z,40.53
2023-04-04T16:40:03.506Z,41.48
2023-04-04T16:42:29.902Z,38.16
2023-04-04T16:44:56.365Z,42.67
2023-04-04T16:47:22.784Z,41.34
2023-04-04T16:49:49.256Z,40.84
2023-04-04T16:52:16.136Z,42.02
2023-04-04T16:54:43.826Z,40.27
2023-04-04T16:57:10.642Z,40.01
2023-04-04T16:59:37.251Z,41.41
2023-04-04T17:02:04.079Z,40.54
2023-04-04T17:04:30.622Z,44.30
2023-04-04T17:06:57.042Z,43.70
2023-04-04T17:09:23.553Z,45.34
2023-04-04T17:11:51.281Z,44.84
2023-04-04T17:14:17.743Z,44.66
2023-04-04T17:16:44.381Z,42.35
2023-04-04T17:19:10.808Z,44.69
2023-04-04T17:21:37.220Z,43.93
2023-04-04T17:24:03.884Z,43.48
2023-04-04T17:26:30.476Z,42.29
2023-04-04T17:28:58.256Z,44.10
2023-04-04T17:31:24.878Z,44.60
2023-04-04T17:33:51.356Z,48.53
2023-04-04T17:36:17.823Z,47.12
2023-04-04T17:38:44.208Z,49.30
2023-04-04T17:41:10.817Z,47.68
2023-04-04T17:43:37.267Z,48.31
2023-04-04T17:46:05.221Z,49.49
2023-04-04T17:48:31.743Z,48.40
2023-04-04T17:50:58.284Z,47.30
2023-04-04T17:53:24.736Z,47.04
2023-04-04T17:55:51.218Z,50.45
2023-04-04T17:58:17.704Z,48.15
2023-04-04T18:00:44.153Z,47.36
2023-04-04T18:03:12.158Z,48.14
2023-04-04T18:05:39.902Z,49.25
2023-04-04T18:08:06.386Z,48.49
2023-04-04T18:10:32.826Z,47.92
2023-04-04T18:12:59.276Z,49.35
2023-04-04T18:15:25.780Z,51.28
2023-04-04T18:17:52.544Z,50.80
2023-04-04T18:20:42.498Z,49.62
2023-04-04T18:23:07.092Z,50.09
2023-04-04T18:25:33.670Z,49.68
2023-04-04T18:28:00.279Z,50.37
2023-04-04T18:30:26.722Z,49.16
2023-04-04T18:32:53.290Z,52.01
2023-04-04T18:35:21.042Z,50.70
2023-04-04T18:37:47.485Z,51.78
2023-04-04T18:40:13.945Z,52.92
2023-04-04T18:42:40.456Z,53.44
2023-04-04T18:45:07.926Z,51.60
2023-04-04T18:47:34.400Z,52.11
2023-04-04T18:50:00.776Z,53.16
2023-04-04T18:52:28.622Z,54.06
2023-04-04T18:54:55.023Z,54.84
2023-04-04T18:57:21.390Z,54.58
2023-04-04T18:59:47.833Z,53.37
2023-04-04T19:02:14.272Z,53.96
2023-04-04T19:04:40.755Z,55.21
2023-04-04T19:07:07.355Z,53.74
2023-04-04T19:09:36.118Z,54.84
2023-04-04T19:12:03.446Z,54.95
2023-04-04T19:14:30.185Z,54.12
2023-04-04T19:16:56.563Z,53.96
2023-04-04T19:19:22.967Z,54.50
2023-04-04T19:21:49.507Z,55.19
2023-04-04T19:24:15.928Z,56.78
2023-04-04T19:26:43.728Z,54.42
2023-04-04T19:29:10.212Z,55.98
2023-04-04T19:31:36.596Z,56.25
2023-04-04T19:34:05.443Z,55.54
2023-04-04T19:36:36.647Z,55.54
2023-04-04T19:39:04.576Z,57.69
2023-04-04T19:41:34.115Z,55.63
2023-04-04T19:44:02.538Z,56.97
2023-04-04T19:46:30.994Z,55.12
2023-04-04T19:48:58.269Z,55.91
2023-04-04T19:51:44.773Z,55.42
2023-04-04T19:54:12.676Z,55.46
2023-04-04T19:56:39.144Z,55.75
2023-04-04T19:59:09.232Z,54.73
2023-04-04T20:01:40.544Z,55.08
2023-04-04T20:04:11.293Z,56.44
2023-04-04T20:06:38.177Z,57.12
2023-04-04T20:09:10.361Z,56.00
2023-04-04T20:11:36.752Z,56.20
2023-04-04T20:14:08.620Z,55.91
2023-04-04T20:16:36.093Z,55.71
2023-04-04T20:19:04.568Z,56.53
2023-04-04T20:21:30.979Z,56.62
2023-04-04T20:23:59.633Z,57.88
2023-04-04T20:26:41.335Z,57.15
2023-04-04T20:29:10.517Z,57.55
2023-04-04T20:31:41.052Z,58.18
2023-04-04T20:34:08.905Z,58.33
2023-04-04T20:36:39.686Z,56.76
2023-04-04T20:39:27.825Z,58.44
2023-04-04T20:41:55.460Z,58.07
2023-04-04T20:44:23.187Z,58.38
2023-04-04T20:46:49.620Z,59.03
2023-04-04T20:49:19.735Z,59.30
2023-04-04T20:51:46.102Z,58.84
2023-04-04T20:54:12.671Z,57.96
2023-04-04T20:56:47.153Z,58.16
2023-04-04T20:59:33.189Z,58.79
2023-04-04T21:02:08.716Z,58.61
2023-04-04T21:04:35.739Z,58.92
2023-04-04T21:07:02.509Z,59.32
2023-04-04T21:09:28.940Z,61.13
2023-04-04T21:11:58.172Z,61.05
2023-04-04T21:14:30.349Z,61.54
2023-04-04T21:16:58.174Z,61.31
2023-04-04T21:19:24.640Z,61.10
2023-04-04T21:21:51.082Z,61.89
2023-04-04T21:24:17.710Z,62.44
2023-04-04T21:26:44.113Z,63.63
2023-04-04T21:29:20.505Z,64.54
2023-04-04T21:31:47.171Z,64.81
2023-04-04T21:34:16.756Z,65.25
2023-04-04T21:36:44.104Z,66.47
2023-04-04T21:39:12.679Z,65.20
2023-04-04T21:41:39.921Z,64.67
2023-04-04T21:44:07.846Z,65.19
2023-04-04T21:46:35.695Z,65.79
2023-04-04T21:49:02.906Z,66.48
2023-04-04T21:51:30.601Z,66.55
2023-04-04T21:53:57.115Z,65.87
2023-04-04T21:56:23.829Z,66.32
2023-04-04T21:58:50.249Z,68.12
2023-04-04T22:01:16.687Z,68.26
2023-04-04T22:03:43.158Z,68.63
2023-04-04T22:06:09.545Z,69.15
2023-04-04T22:08:37.284Z,69.52
2023-04-04T22:11:04.325Z,70.17
2023-04-04T22:13:30.784Z,70.07
2023-04-04T22:15:57.749Z,71.36
2023-04-04T22:18:24.697Z,70.38
2023-04-04T22:20:51.147Z,70.20
2023-04-04T22:23:17.521Z,69.89
2023-04-04T22:25:45.237Z,71.33
2023-04-04T22:28:11.716Z,71.89
2023-04-04T22:30:38.313Z,71.97
2023-04-04T22:33:04.993Z,71.41
2023-04-04T22:35:31.586Z,71.36
2023-04-04T22:37:58.117Z,70.51
2023-04-04T22:40:24.544Z,71.72
2023-04-04T22:42:52.312Z,72.00
2023-04-04T22:45:18.684Z,71.25
2023-04-04T22:47:45.248Z,71.43
2023-04-04T22:50:11.649Z,72.24
2023-04-04T22:52:38.310Z,73.10
2023-04-04T22:55:04.977Z,72.86
2023-04-04T22:57:31.374Z,73.63
2023-04-04T22:59:59.172Z,74.50
2023-04-04T23:02:25.561Z,74.31
2023-04-04T23:04:51.993Z,73.85
2023-04-04T23:07:18.347Z,73.14
2023-04-04T23:09:44.722Z,72.47
2023-04-04T23:12:11.083Z,72.91
2023-04-04T23:14:37.484Z,73.60
2023-04-04T23:17:05.234Z,74.11
2023-04-04T23:19:31.573Z,74.24
2023-04-04T23:21:57.995Z,74.08
2023-04-04T23:24:24.455Z,74.69
2023-04-04T23:26:50.858Z,74.69
2023-04-04T23:29:17.166Z,75.00
2023-04-04T23:31:43.668Z,73.89
2023-04-04T23:34:11.470Z,73.68
2023-04-04T23:36:37.898Z,70.39
2023-04-04T23:39:04.316Z,70.99
2023-04-04T23:41:30.721Z,72.22
2023-04-04T23:43:57.113Z,72.62
2023-04-04T23:46:23.762Z,72.37
2023-04-04T23:48:50.266Z,72.32
2023-04-04T23:51:18.080Z,71.55
2023-04-04T23:53:44.442Z,71.20
2023-04-04T23:56:10.853Z,70.40
2023-04-04T23:58:37.225Z,69.99
